Saipan, Northern Mariana Islands
Current Conditions -  °F | °C
As of 8:54 AM on Friday 28 Nov 2014 (Local Time) from PGSN Reporting Station
Broken Clouds Broken Clouds  
Wind Chill: 84°   Ceiling: 3700
Heat Index: 90°   Visibility: 10mi
Dew Point: 73°   Wind: 21mph
Humidity: 69%   Direction: 70°ENE
Pressure: 29.92"   Gusts: 29mph
Location:  15.13°N, 145.7°E
Report Text: PGSN 272254Z 07018G25KT 10SM SCT030 BKN037 29/23 A2992 RMK AO2 SLP153 T02890228 PNO $
Loading
Personal Weather Stations






























Interactive Weather Map New forecast layout! Learn more

10-Day Weather Forecast

Advertisements
Track Severe Weather on mobile